Detalii statie AGROKAISER STANESTI [0000198D]

Toti senzorii

Date Temperatura solului [C]Precipitatii [mm]Voltaj baterie [mV]Leaf Wetness [Min]HC Air temperature [C]HC Relative humidity [%]Punctul de roua [C]
medieminmaxsumaultimatimpmedieminmaxmediemediemin
2017-12-10 21:00:00 0 6816 -0.79 -1.15 -0.04 100 -0.6 -1
2017-12-10 22:00:00 0 6806 -1.08 -1.53 -0.89 100 -0.9 -1.4
2017-12-10 23:00:00 0 6796 -1.87 -2.1 -1.59 100 -1.7 -2
2017-12-11 00:00:00 0 6796 -2.15 -2.59 -2.01 100 -2 -2.4
2017-12-11 01:00:00 0 6776 -2.44 -2.86 -2.1 100 -2.3 -2.7
2017-12-11 02:00:00 0 6776 -2.87 -3.42 -2.15 100 -2.7 -3.3
2017-12-11 03:00:00 0 6766 -3 -3.18 -2.78 100 -2.8 -3
2017-12-11 04:00:00 0 6776 -2.76 -3.13 -2.45 100 -2.6 -3
2017-12-11 05:00:00 0 6776 -2.65 -3.22 -1.82 100 -2.5 -3.1
2017-12-11 06:00:00 0 6776 -3.01 -3.44 -2.63 100 -2.8 -3.3
2017-12-11 07:00:00 0 6776 -3.08 -3.26 -2.84 100 -2.9 -3.1
2017-12-11 08:00:00 0 6766 -2.44 -2.77 -2.1 100 -2.3 -2.6
2017-12-11 09:00:00 0 6894 -1.51 -1.99 -0.99 100 -1.3 -1.8
2017-12-11 10:00:00 0 7196 -0.78 -1.4 0.23 100 -0.6 -1.3
2017-12-11 11:00:00 0 7294 2.09 0.63 3.51 96.64 1.5 0.6
2017-12-11 12:00:00 0 7284 4 3.62 4.3 84.19 1.4 0.9
2017-12-11 13:00:00 0 7284 4.71 4.22 5.04 85.24 2.3 1.5
2017-12-11 14:00:00 0 7274 5.28 4.9 5.51 81.23 2.2 1.8
2017-12-11 15:00:00 0 7254 5.29 5.03 5.47 82.52 2.4 1.6
2017-12-11 16:00:00 0 7050 4.38 3.95 4.88 88.03 2.4 2.1
2017-12-11 17:00:00 0 6894 3.45 2.75 4.55 97.58 3 1.7
2017-12-11 18:00:00 0 6854 2.69 2.31 3.04 100 2.6 2.3
2017-12-11 19:00:00 0 6834 2.66 1.94 3.54 99.87 2.6 1.9
2017-12-11 20:00:00 0 6816 1.11 0.62 1.71 100 1 0.6
2017-12-11 21:00:00 0 6816 1.22 0.74 1.91 100 1.1 0.7
2017-12-11 22:00:00 0 6806 0.99 0.61 1.53 100 0.9 0.6
2017-12-11 23:00:00 0 6796 0.95 0.57 1.31 100 0.9 0.5
2017-12-12 00:00:00 0 6786 0.39 -0.01 0.68 100 0.3 0
2017-12-12 01:00:00 0 6776 -0.08 -0.45 0.32 100 0 -0.3
2017-12-12 02:00:00 0 6786 -0.15 -0.58 0.37 100 0 -0.4
2017-12-12 03:00:00 0 6776 -0.47 -1.08 0.28 100 -0.3 -0.9
2017-12-12 04:00:00 0 6776 -0.63 -1.39 0.53 100 -0.5 -1.2
2017-12-12 05:00:00 0 6776 -0.24 -0.87 0.28 100 -0.1 -0.7
2017-12-12 06:00:00 0 6776 -0.78 -1.36 0.15 100 -0.6 -1.2
2017-12-12 07:00:00 0 6776 -0.68 -1.62 0.4 100 -0.5 -1.5
2017-12-12 08:00:00 0 6766 -1.11 -1.52 -0.61 100 -0.9 -1.4
2017-12-12 09:00:00 0 6982 0.6 -0.5 2.4 100 0.6 -0.4
2017-12-12 10:00:00 0 7206 3.8 2.56 4.56 100 3.7 2.5
2017-12-12 11:00:00 0 7294 5.3 4.62 6.49 99.82 5.2 4.6
2017-12-12 12:00:00 0 7284 8.23 6.82 9.81 92.41 6.9 6.5
2017-12-12 13:00:00 0 7284 11.28 10.17 12.01 77.94 7.4 7
2017-12-12 14:00:00 0 7274 12.24 11.69 12.91 79.84 8.7 7.8
2017-12-12 15:00:00 0 7284 12.72 12 13.1 82.88 9.7 9.5
2017-12-12 16:00:00 0 7158 11.63 10.33 12.59 93.76 10.5 9.9
2017-12-12 17:00:00 0 6962 8.57 7.37 9.9 100 8.5 7.3
2017-12-12 18:00:00 0 6874 6.39 5.85 7.21 100 6.3 5.8
2017-12-12 19:00:00 0 6844 5.71 5.27 6.08 100 5.6 5.2